sensor_id;sensor_type;location;lat;lon;timestamp;temperature;humidity
18797;DHT22;9526;52.612;13.300;2023-04-25T00:00:40;9.60;99.90
18797;DHT22;9526;52.612;13.300;2023-04-25T00:03:04;9.60;99.90
18797;DHT22;9526;52.612;13.300;2023-04-25T00:05:28;9.70;99.90
18797;DHT22;9526;52.612;13.300;2023-04-25T00:07:52;9.70;99.90
18797;DHT22;9526;52.612;13.300;2023-04-25T00:10:18;9.70;99.90
18797;DHT22;9526;52.612;13.300;2023-04-25T00:12:41;9.70;99.90
18797;DHT22;9526;52.612;13.300;2023-04-25T00:15:06;9.70;99.90
18797;DHT22;9526;52.612;13.300;2023-04-25T00:17:30;9.60;99.90
18797;DHT22;9526;52.612;13.300;2023-04-25T00:19:54;9.60;99.90
18797;DHT22;9526;52.612;13.300;2023-04-25T00:22:18;9.60;99.90
18797;DHT22;9526;52.612;13.300;2023-04-25T00:24:42;9.50;99.90
18797;DHT22;9526;52.612;13.300;2023-04-25T00:27:07;9.50;99.90
18797;DHT22;9526;52.612;13.300;2023-04-25T00:29:31;9.60;99.90
18797;DHT22;9526;52.612;13.300;2023-04-25T00:31:54;9.50;99.90
18797;DHT22;9526;52.612;13.300;2023-04-25T00:34:18;9.50;99.90
18797;DHT22;9526;52.612;13.300;2023-04-25T00:36:42;9.50;99.90
18797;DHT22;9526;52.612;13.300;2023-04-25T00:39:06;9.60;99.90
18797;DHT22;9526;52.612;13.300;2023-04-25T00:41:30;9.60;99.90
18797;DHT22;9526;52.612;13.300;2023-04-25T00:43:56;9.60;99.90
18797;DHT22;9526;52.612;13.300;2023-04-25T00:46:20;9.60;99.90
18797;DHT22;9526;52.612;13.300;2023-04-25T00:48:43;9.60;99.90
18797;DHT22;9526;52.612;13.300;2023-04-25T00:51:07;9.60;99.90
18797;DHT22;9526;52.612;13.300;2023-04-25T00:53:32;9.60;99.90
18797;DHT22;9526;52.612;13.300;2023-04-25T00:55:56;9.60;99.90
18797;DHT22;9526;52.612;13.300;2023-04-25T00:58:20;9.60;99.90
18797;DHT22;9526;52.612;13.300;2023-04-25T01:00:46;9.60;99.90
18797;DHT22;9526;52.612;13.300;2023-04-25T01:03:11;9.60;99.90
18797;DHT22;9526;52.612;13.300;2023-04-25T01:05:34;9.60;99.90
18797;DHT22;9526;52.612;13.300;2023-04-25T01:07:59;9.50;99.90
18797;DHT22;9526;52.612;13.300;2023-04-25T01:10:22;9.50;99.90
18797;DHT22;9526;52.612;13.300;2023-04-25T01:12:46;9.50;99.90
18797;DHT22;9526;52.612;13.300;2023-04-25T01:15:10;9.40;99.90
18797;DHT22;9526;52.612;13.300;2023-04-25T01:17:35;9.40;99.90
18797;DHT22;9526;52.612;13.300;2023-04-25T01:19:59;9.40;99.90
18797;DHT22;9526;52.612;13.300;2023-04-25T01:22:28;9.40;99.90
18797;DHT22;9526;52.612;13.300;2023-04-25T01:24:52;9.40;99.90
18797;DHT22;9526;52.612;13.300;2023-04-25T01:27:16;9.40;99.90
18797;DHT22;9526;52.612;13.300;2023-04-25T01:29:40;9.40;99.90
18797;DHT22;9526;52.612;13.300;2023-04-25T01:32:05;9.40;99.90
18797;DHT22;9526;52.612;13.300;2023-04-25T01:34:29;9.50;99.90
18797;DHT22;9526;52.612;13.300;2023-04-25T01:36:53;9.40;99.90
18797;DHT22;9526;52.612;13.300;2023-04-25T01:39:18;9.40;99.90
18797;DHT22;9526;52.612;13.300;2023-04-25T01:41:42;9.40;99.90
18797;DHT22;9526;52.612;13.300;2023-04-25T01:44:06;9.40;99.90
18797;DHT22;9526;52.612;13.300;2023-04-25T01:46:32;9.40;99.90
18797;DHT22;9526;52.612;13.300;2023-04-25T01:48:56;9.40;99.90
18797;DHT22;9526;52.612;13.300;2023-04-25T01:51:20;9.40;99.90
18797;DHT22;9526;52.612;13.300;2023-04-25T01:53:43;9.30;99.90
18797;DHT22;9526;52.612;13.300;2023-04-25T01:56:09;9.40;99.90
18797;DHT22;9526;52.612;13.300;2023-04-25T01:58:33;9.30;99.90
18797;DHT22;9526;52.612;13.300;2023-04-25T02:01:20;9.30;99.90
18797;DHT22;9526;52.612;13.300;2023-04-25T02:04:02;9.30;99.90
18797;DHT22;9526;52.612;13.300;2023-04-25T02:06:30;9.30;99.90
18797;DHT22;9526;52.612;13.300;2023-04-25T02:08:54;9.30;99.90
18797;DHT22;9526;52.612;13.300;2023-04-25T02:11:19;9.30;99.90
18797;DHT22;9526;52.612;13.300;2023-04-25T02:13:56;9.30;99.90
18797;DHT22;9526;52.612;13.300;2023-04-25T02:16:41;9.30;99.90
18797;DHT22;9526;52.612;13.300;2023-04-25T02:19:06;9.30;99.90
18797;DHT22;9526;52.612;13.300;2023-04-25T02:21:29;9.30;99.90
18797;DHT22;9526;52.612;13.300;2023-04-25T02:23:53;9.30;99.90
18797;DHT22;9526;52.612;13.300;2023-04-25T02:26:18;9.30;99.90
18797;DHT22;9526;52.612;13.300;2023-04-25T02:28:43;9.30;99.90
18797;DHT22;9526;52.612;13.300;2023-04-25T02:31:06;9.20;99.90
18797;DHT22;9526;52.612;13.300;2023-04-25T02:33:30;9.20;99.90
18797;DHT22;9526;52.612;13.300;2023-04-25T02:35:53;9.20;99.90
18797;DHT22;9526;52.612;13.300;2023-04-25T02:38:17;9.20;99.90
18797;DHT22;9526;52.612;13.300;2023-04-25T02:40:41;9.20;99.90
18797;DHT22;9526;52.612;13.300;2023-04-25T02:43:06;9.20;99.90
18797;DHT22;9526;52.612;13.300;2023-04-25T02:45:30;9.20;99.90
18797;DHT22;9526;52.612;13.300;2023-04-25T02:47:53;9.20;99.90
18797;DHT22;9526;52.612;13.300;2023-04-25T02:50:17;9.20;99.90
18797;DHT22;9526;52.612;13.300;2023-04-25T02:52:41;9.20;99.90
18797;DHT22;9526;52.612;13.300;2023-04-25T02:55:09;9.20;99.90
18797;DHT22;9526;52.612;13.300;2023-04-25T02:57:34;9.20;99.90
18797;DHT22;9526;52.612;13.300;2023-04-25T02:59:59;9.20;99.90
18797;DHT22;9526;52.612;13.300;2023-04-25T03:02:23;9.20;99.90
18797;DHT22;9526;52.612;13.300;2023-04-25T03:04:46;9.20;99.90
18797;DHT22;9526;52.612;13.300;2023-04-25T03:07:10;9.20;99.90
18797;DHT22;9526;52.612;13.300;2023-04-25T03:09:34;9.20;99.90
18797;DHT22;9526;52.612;13.300;2023-04-25T03:11:58;9.20;99.90
18797;DHT22;9526;52.612;13.300;2023-04-25T03:14:22;9.20;99.90
18797;DHT22;9526;52.612;13.300;2023-04-25T03:16:47;9.20;99.90
18797;DHT22;9526;52.612;13.300;2023-04-25T03:19:11;9.20;99.90
18797;DHT22;9526;52.612;13.300;2023-04-25T03:21:38;9.20;99.90
18797;DHT22;9526;52.612;13.300;2023-04-25T03:24:02;9.20;99.90
18797;DHT22;9526;52.612;13.300;2023-04-25T03:26:27;9.20;99.90
18797;DHT22;9526;52.612;13.300;2023-04-25T03:28:50;9.20;99.90
18797;DHT22;9526;52.612;13.300;2023-04-25T03:31:14;9.20;99.90
18797;DHT22;9526;52.612;13.300;2023-04-25T03:33:39;9.20;99.90
18797;DHT22;9526;52.612;13.300;2023-04-25T03:36:03;9.20;99.90
18797;DHT22;9526;52.612;13.300;2023-04-25T03:38:28;9.20;99.90
18797;DHT22;9526;52.612;13.300;2023-04-25T03:40:53;9.20;99.90
18797;DHT22;9526;52.612;13.300;2023-04-25T03:43:25;9.20;99.90
18797;DHT22;9526;52.612;13.300;2023-04-25T03:45:54;9.10;99.90
18797;DHT22;9526;52.612;13.300;2023-04-25T03:48:18;9.10;99.90
18797;DHT22;9526;52.612;13.300;2023-04-25T03:50:45;9.10;99.90
18797;DHT22;9526;52.612;13.300;2023-04-25T03:53:08;9.10;99.90
18797;DHT22;9526;52.612;13.300;2023-04-25T03:56:01;9.10;99.90
18797;DHT22;9526;52.612;13.300;2023-04-25T03:58:27;9.00;99.90
18797;DHT22;9526;52.612;13.300;2023-04-25T04:00:51;9.10;99.90
18797;DHT22;9526;52.612;13.300;2023-04-25T04:03:14;9.10;99.90
18797;DHT22;9526;52.612;13.300;2023-04-25T04:05:38;9.00;99.90
18797;DHT22;9526;52.612;13.300;2023-04-25T04:08:05;9.00;99.90
18797;DHT22;9526;52.612;13.300;2023-04-25T04:10:29;9.10;99.90
18797;DHT22;9526;52.612;13.300;2023-04-25T04:12:53;9.10;99.90
18797;DHT22;9526;52.612;13.300;2023-04-25T04:15:16;9.10;99.90
18797;DHT22;9526;52.612;13.300;2023-04-25T04:17:42;9.10;99.90
18797;DHT22;9526;52.612;13.300;2023-04-25T04:20:07;9.00;99.90
18797;DHT22;9526;52.612;13.300;2023-04-25T04:22:33;9.10;99.90
18797;DHT22;9526;52.612;13.300;2023-04-25T04:25:03;9.10;99.90
18797;DHT22;9526;52.612;13.300;2023-04-25T04:27:50;9.10;99.90
18797;DHT22;9526;52.612;13.300;2023-04-25T04:30:23;9.10;99.90
18797;DHT22;9526;52.612;13.300;2023-04-25T04:32:52;9.10;99.90
18797;DHT22;9526;52.612;13.300;2023-04-25T04:35:16;9.10;99.90
18797;DHT22;9526;52.612;13.300;2023-04-25T04:37:41;9.10;99.90
18797;DHT22;9526;52.612;13.300;2023-04-25T04:40:08;9.10;99.90
18797;DHT22;9526;52.612;13.300;2023-04-25T04:42:37;9.10;99.90
18797;DHT22;9526;52.612;13.300;2023-04-25T04:45:20;9.10;99.90
18797;DHT22;9526;52.612;13.300;2023-04-25T04:48:13;9.20;99.90
18797;DHT22;9526;52.612;13.300;2023-04-25T04:50:50;9.20;99.90
18797;DHT22;9526;52.612;13.300;2023-04-25T04:53:39;9.30;99.90
18797;DHT22;9526;52.612;13.300;2023-04-25T04:56:13;9.20;99.90
18797;DHT22;9526;52.612;13.300;2023-04-25T04:58:48;9.20;99.90
18797;DHT22;9526;52.612;13.300;2023-04-25T05:01:28;9.30;99.90
18797;DHT22;9526;52.612;13.300;2023-04-25T05:04:10;9.40;99.90
18797;DHT22;9526;52.612;13.300;2023-04-25T05:06:37;9.40;99.90
18797;DHT22;9526;52.612;13.300;2023-04-25T05:09:14;9.40;99.90
18797;DHT22;9526;52.612;13.300;2023-04-25T05:11:59;9.40;99.90
18797;DHT22;9526;52.612;13.300;2023-04-25T05:14:44;9.40;99.90
18797;DHT22;9526;52.612;13.300;2023-04-25T05:17:26;9.50;99.90
18797;DHT22;9526;52.612;13.300;2023-04-25T05:20:11;9.40;99.90
18797;DHT22;9526;52.612;13.300;2023-04-25T05:22:58;9.50;99.90
18797;DHT22;9526;52.612;13.300;2023-04-25T05:25:40;9.50;99.90
18797;DHT22;9526;52.612;13.300;2023-04-25T05:28:18;9.50;99.90
18797;DHT22;9526;52.612;13.300;2023-04-25T05:30:52;9.50;99.90
18797;DHT22;9526;52.612;13.300;2023-04-25T05:33:22;9.50;99.90
18797;DHT22;9526;52.612;13.300;2023-04-25T05:35:46;9.50;99.90
18797;DHT22;9526;52.612;13.300;2023-04-25T05:38:10;9.50;99.90
18797;DHT22;9526;52.612;13.300;2023-04-25T05:40:53;9.60;99.90
18797;DHT22;9526;52.612;13.300;2023-04-25T05:43:54;9.50;99.90
18797;DHT22;9526;52.612;13.300;2023-04-25T05:46:34;9.50;99.90
18797;DHT22;9526;52.612;13.300;2023-04-25T05:49:27;9.60;99.90
18797;DHT22;9526;52.612;13.300;2023-04-25T05:52:11;9.50;99.90
18797;DHT22;9526;52.612;13.300;2023-04-25T05:54:42;9.60;99.90
18797;DHT22;9526;52.612;13.300;2023-04-25T05:57:06;9.60;99.90
18797;DHT22;9526;52.612;13.300;2023-04-25T05:59:31;9.70;99.90
18797;DHT22;9526;52.612;13.300;2023-04-25T06:01:56;9.60;99.90
18797;DHT22;9526;52.612;13.300;2023-04-25T06:04:21;9.60;99.90
18797;DHT22;9526;52.612;13.300;2023-04-25T06:06:45;9.70;99.90
18797;DHT22;9526;52.612;13.300;2023-04-25T06:09:08;9.80;99.90
18797;DHT22;9526;52.612;13.300;2023-04-25T06:11:35;9.80;99.90
18797;DHT22;9526;52.612;13.300;2023-04-25T06:13:58;9.80;99.90
18797;DHT22;9526;52.612;13.300;2023-04-25T06:16:24;9.80;99.90
18797;DHT22;9526;52.612;13.300;2023-04-25T06:18:48;9.80;99.90
18797;DHT22;9526;52.612;13.300;2023-04-25T06:21:12;9.70;99.90
18797;DHT22;9526;52.612;13.300;2023-04-25T06:23:35;9.70;99.90
18797;DHT22;9526;52.612;13.300;2023-04-25T06:26:01;9.70;99.90
18797;DHT22;9526;52.612;13.300;2023-04-25T06:28:27;9.80;99.90
18797;DHT22;9526;52.612;13.300;2023-04-25T06:30:51;9.70;99.90
18797;DHT22;9526;52.612;13.300;2023-04-25T06:33:16;9.70;99.90
18797;DHT22;9526;52.612;13.300;2023-04-25T06:35:40;9.70;99.90
18797;DHT22;9526;52.612;13.300;2023-04-25T06:38:06;9.80;99.90
18797;DHT22;9526;52.612;13.300;2023-04-25T06:40:32;9.80;99.90
18797;DHT22;9526;52.612;13.300;2023-04-25T06:42:56;9.70;99.90
18797;DHT22;9526;52.612;13.300;2023-04-25T06:45:50;9.70;99.90
18797;DHT22;9526;52.612;13.300;2023-04-25T06:48:17;9.70;99.90
18797;DHT22;9526;52.612;13.300;2023-04-25T06:50:40;9.70;99.90
18797;DHT22;9526;52.612;13.300;2023-04-25T06:53:05;9.70;99.90
18797;DHT22;9526;52.612;13.300;2023-04-25T06:55:31;9.70;99.90
18797;DHT22;9526;52.612;13.300;2023-04-25T06:58:21;9.60;99.90
18797;DHT22;9526;52.612;13.300;2023-04-25T07:01:11;9.60;99.90
18797;DHT22;9526;52.612;13.300;2023-04-25T07:03:38;9.70;99.90
18797;DHT22;9526;52.612;13.300;2023-04-25T07:06:08;9.70;99.90
18797;DHT22;9526;52.612;13.300;2023-04-25T07:08:31;9.70;99.90
18797;DHT22;9526;52.612;13.300;2023-04-25T07:10:55;9.80;99.90
18797;DHT22;9526;52.612;13.300;2023-04-25T07:13:19;9.80;99.90
18797;DHT22;9526;52.612;13.300;2023-04-25T07:15:44;9.70;99.90
18797;DHT22;9526;52.612;13.300;2023-04-25T07:18:11;9.70;99.90
18797;DHT22;9526;52.612;13.300;2023-04-25T07:20:36;9.80;99.90
18797;DHT22;9526;52.612;13.300;2023-04-25T07:23:01;9.90;99.90
18797;DHT22;9526;52.612;13.300;2023-04-25T07:25:24;9.90;99.90
18797;DHT22;9526;52.612;13.300;2023-04-25T07:27:49;10.00;99.90
18797;DHT22;9526;52.612;13.300;2023-04-25T07:30:15;9.90;99.90
18797;DHT22;9526;52.612;13.300;2023-04-25T07:32:39;10.00;99.90
18797;DHT22;9526;52.612;13.300;2023-04-25T07:35:04;9.90;99.90
18797;DHT22;9526;52.612;13.300;2023-04-25T07:37:30;9.90;99.90
18797;DHT22;9526;52.612;13.300;2023-04-25T07:40:03;10.00;99.90
18797;DHT22;9526;52.612;13.300;2023-04-25T07:42:30;10.00;99.90
18797;DHT22;9526;52.612;13.300;2023-04-25T07:44:55;10.00;99.90
18797;DHT22;9526;52.612;13.300;2023-04-25T07:47:19;10.10;99.90
18797;DHT22;9526;52.612;13.300;2023-04-25T07:49:42;10.10;99.90
18797;DHT22;9526;52.612;13.300;2023-04-25T07:52:08;10.20;99.90
18797;DHT22;9526;52.612;13.300;2023-04-25T07:54:40;10.30;99.90
18797;DHT22;9526;52.612;13.300;2023-04-25T07:57:10;10.50;99.90
18797;DHT22;9526;52.612;13.300;2023-04-25T07:59:36;10.60;99.90
18797;DHT22;9526;52.612;13.300;2023-04-25T08:02:00;10.60;99.90
18797;DHT22;9526;52.612;13.300;2023-04-25T08:04:25;10.60;99.90
18797;DHT22;9526;52.612;13.300;2023-04-25T08:06:58;10.60;99.90
18797;DHT22;9526;52.612;13.300;2023-04-25T08:09:25;10.60;99.90
18797;DHT22;9526;52.612;13.300;2023-04-25T08:11:51;10.60;99.90
18797;DHT22;9526;52.612;13.300;2023-04-25T08:14:20;10.60;99.90
18797;DHT22;9526;52.612;13.300;2023-04-25T08:16:44;10.80;99.90
18797;DHT22;9526;52.612;13.300;2023-04-25T08:19:08;10.90;99.90
18797;DHT22;9526;52.612;13.300;2023-04-25T08:21:32;11.00;99.90
18797;DHT22;9526;52.612;13.300;2023-04-25T08:23:59;11.10;99.90
18797;DHT22;9526;52.612;13.300;2023-04-25T08:26:29;11.10;99.90
18797;DHT22;9526;52.612;13.300;2023-04-25T08:28:54;11.30;99.90
18797;DHT22;9526;52.612;13.300;2023-04-25T08:31:18;11.40;99.90
18797;DHT22;9526;52.612;13.300;2023-04-25T08:33:49;11.50;99.90
18797;DHT22;9526;52.612;13.300;2023-04-25T08:36:35;11.50;99.90
18797;DHT22;9526;52.612;13.300;2023-04-25T08:39:36;11.60;99.90
18797;DHT22;9526;52.612;13.300;2023-04-25T08:42:24;11.80;99.90
18797;DHT22;9526;52.612;13.300;2023-04-25T08:44:53;12.00;99.90
18797;DHT22;9526;52.612;13.300;2023-04-25T08:47:22;11.90;99.90
18797;DHT22;9526;52.612;13.300;2023-04-25T08:49:52;11.90;99.90
18797;DHT22;9526;52.612;13.300;2023-04-25T08:52:21;11.80;99.90
18797;DHT22;9526;52.612;13.300;2023-04-25T08:54:48;11.60;99.90
18797;DHT22;9526;52.612;13.300;2023-04-25T08:57:14;11.80;99.90
18797;DHT22;9526;52.612;13.300;2023-04-25T08:59:39;12.00;99.90
18797;DHT22;9526;52.612;13.300;2023-04-25T09:02:09;12.20;99.90
18797;DHT22;9526;52.612;13.300;2023-04-25T09:04:37;12.50;99.90
18797;DHT22;9526;52.612;13.300;2023-04-25T09:07:00;12.60;99.90
18797;DHT22;9526;52.612;13.300;2023-04-25T09:09:24;12.80;99.90
18797;DHT22;9526;52.612;13.300;2023-04-25T09:11:48;13.00;99.90
18797;DHT22;9526;52.612;13.300;2023-04-25T09:14:13;13.10;99.90
18797;DHT22;9526;52.612;13.300;2023-04-25T09:17:00;13.40;99.90
18797;DHT22;9526;52.612;13.300;2023-04-25T09:19:38;13.70;99.90
18797;DHT22;9526;52.612;13.300;2023-04-25T09:22:14;13.70;99.90
18797;DHT22;9526;52.612;13.300;2023-04-25T09:24:39;13.60;99.90
18797;DHT22;9526;52.612;13.300;2023-04-25T09:27:06;13.40;99.90
18797;DHT22;9526;52.612;13.300;2023-04-25T09:29:30;13.40;99.90
18797;DHT22;9526;52.612;13.300;2023-04-25T09:32:17;13.30;99.90
18797;DHT22;9526;52.612;13.300;2023-04-25T09:34:46;13.30;99.90
18797;DHT22;9526;52.612;13.300;2023-04-25T09:37:17;13.40;99.90
18797;DHT22;9526;52.612;13.300;2023-04-25T09:40:09;13.30;99.90
18797;DHT22;9526;52.612;13.300;2023-04-25T09:42:50;13.10;99.90
18797;DHT22;9526;52.612;13.300;2023-04-25T09:45:14;13.10;99.90
18797;DHT22;9526;52.612;13.300;2023-04-25T09:47:39;13.20;99.90
18797;DHT22;9526;52.612;13.300;2023-04-25T09:50:15;13.50;99.90
18797;DHT22;9526;52.612;13.300;2023-04-25T09:52:43;13.70;99.90
18797;DHT22;9526;52.612;13.300;2023-04-25T09:55:17;13.70;99.90
18797;DHT22;9526;52.612;13.300;2023-04-25T09:57:41;14.00;99.90
18797;DHT22;9526;52.612;13.300;2023-04-25T10:00:07;14.30;99.90
18797;DHT22;9526;52.612;13.300;2023-04-25T10:02:38;14.90;99.90
18797;DHT22;9526;52.612;13.300;2023-04-25T10:05:15;15.10;99.40
18797;DHT22;9526;52.612;13.300;2023-04-25T10:07:40;15.00;98.40
18797;DHT22;9526;52.612;13.300;2023-04-25T10:10:09;14.90;96.40
18797;DHT22;9526;52.612;13.300;2023-04-25T10:12:36;14.90;97.70
18797;DHT22;9526;52.612;13.300;2023-04-25T10:15:03;14.40;96.50
18797;DHT22;9526;52.612;13.300;2023-04-25T10:17:27;14.30;97.10
18797;DHT22;9526;52.612;13.300;2023-04-25T10:19:51;14.00;97.30
18797;DHT22;9526;52.612;13.300;2023-04-25T10:22:18;13.90;97.80
18797;DHT22;9526;52.612;13.300;2023-04-25T10:24:50;14.00;97.00
18797;DHT22;9526;52.612;13.300;2023-04-25T10:27:14;14.10;95.30
18797;DHT22;9526;52.612;13.300;2023-04-25T10:29:38;14.10;98.30
18797;DHT22;9526;52.612;13.300;2023-04-25T10:32:02;14.40;96.80
18797;DHT22;9526;52.612;13.300;2023-04-25T10:34:39;14.40;95.60
18797;DHT22;9526;52.612;13.300;2023-04-25T10:37:03;14.30;96.10
18797;DHT22;9526;52.612;13.300;2023-04-25T10:39:28;14.00;94.90
18797;DHT22;9526;52.612;13.300;2023-04-25T10:41:53;13.70;94.40
18797;DHT22;9526;52.612;13.300;2023-04-25T10:44:19;13.80;97.10
18797;DHT22;9526;52.612;13.300;2023-04-25T10:46:44;13.80;97.40
18797;DHT22;9526;52.612;13.300;2023-04-25T10:49:08;13.90;95.90
18797;DHT22;9526;52.612;13.300;2023-04-25T10:51:37;14.00;95.10
18797;DHT22;9526;52.612;13.300;2023-04-25T10:54:17;14.10;94.40
18797;DHT22;9526;52.612;13.300;2023-04-25T10:56:43;13.90;96.40
18797;DHT22;9526;52.612;13.300;2023-04-25T10:59:08;13.90;95.00
18797;DHT22;9526;52.612;13.300;2023-04-25T11:01:37;13.80;96.10
18797;DHT22;9526;52.612;13.300;2023-04-25T11:04:02;13.60;95.60
18797;DHT22;9526;52.612;13.300;2023-04-25T11:06:31;13.00;94.50
18797;DHT22;9526;52.612;13.300;2023-04-25T11:09:01;13.00;96.30
18797;DHT22;9526;52.612;13.300;2023-04-25T11:11:25;12.90;96.90
18797;DHT22;9526;52.612;13.300;2023-04-25T11:13:50;12.70;95.00
18797;DHT22;9526;52.612;13.300;2023-04-25T11:16:13;12.50;95.40
18797;DHT22;9526;52.612;13.300;2023-04-25T11:18:48;12.10;95.50
18797;DHT22;9526;52.612;13.300;2023-04-25T11:21:13;12.30;96.50
18797;DHT22;9526;52.612;13.300;2023-04-25T11:23:37;12.50;95.30
18797;DHT22;9526;52.612;13.300;2023-04-25T11:26:01;12.60;96.40
18797;DHT22;9526;52.612;13.300;2023-04-25T11:28:25;12.60;94.10
18797;DHT22;9526;52.612;13.300;2023-04-25T11:30:50;12.60;94.50
18797;DHT22;9526;52.612;13.300;2023-04-25T11:33:14;12.60;94.10
18797;DHT22;9526;52.612;13.300;2023-04-25T11:35:40;12.60;95.00
18797;DHT22;9526;52.612;13.300;2023-04-25T11:38:04;12.60;94.20
18797;DHT22;9526;52.612;13.300;2023-04-25T11:40:27;12.60;95.00
18797;DHT22;9526;52.612;13.300;2023-04-25T11:42:53;12.70;93.90
18797;DHT22;9526;52.612;13.300;2023-04-25T11:45:16;12.70;97.20
18797;DHT22;9526;52.612;13.300;2023-04-25T11:47:42;12.80;96.00
18797;DHT22;9526;52.612;13.300;2023-04-25T11:50:07;12.60;96.30
18797;DHT22;9526;52.612;13.300;2023-04-25T11:52:41;12.80;97.70
18797;DHT22;9526;52.612;13.300;2023-04-25T11:55:07;12.90;96.40
18797;DHT22;9526;52.612;13.300;2023-04-25T11:57:32;13.00;94.20
18797;DHT22;9526;52.612;13.300;2023-04-25T11:59:56;13.10;95.20
18797;DHT22;9526;52.612;13.300;2023-04-25T12:02:34;13.20;95.10
18797;DHT22;9526;52.612;13.300;2023-04-25T12:05:00;13.00;94.80
18797;DHT22;9526;52.612;13.300;2023-04-25T12:07:45;12.90;93.50
18797;DHT22;9526;52.612;13.300;2023-04-25T12:10:10;12.70;94.10
18797;DHT22;9526;52.612;13.300;2023-04-25T12:12:35;12.90;94.80
18797;DHT22;9526;52.612;13.300;2023-04-25T12:15:09;12.90;95.90
18797;DHT22;9526;52.612;13.300;2023-04-25T12:17:33;13.10;94.70
18797;DHT22;9526;52.612;13.300;2023-04-25T12:19:57;13.30;94.00
18797;DHT22;9526;52.612;13.300;2023-04-25T12:22:23;13.50;95.00
18797;DHT22;9526;52.612;13.300;2023-04-25T12:24:47;13.70;95.50
18797;DHT22;9526;52.612;13.300;2023-04-25T12:27:11;13.70;92.30
18797;DHT22;9526;52.612;13.300;2023-04-25T12:29:38;13.60;91.60
18797;DHT22;9526;52.612;13.300;2023-04-25T12:32:10;13.60;94.40
18797;DHT22;9526;52.612;13.300;2023-04-25T12:34:34;13.60;95.20
18797;DHT22;9526;52.612;13.300;2023-04-25T12:36:58;13.40;92.80
18797;DHT22;9526;52.612;13.300;2023-04-25T12:39:24;13.50;96.00
18797;DHT22;9526;52.612;13.300;2023-04-25T12:41:48;13.50;94.20
18797;DHT22;9526;52.612;13.300;2023-04-25T12:44:12;13.60;96.90
18797;DHT22;9526;52.612;13.300;2023-04-25T12:46:36;13.60;94.60
18797;DHT22;9526;52.612;13.300;2023-04-25T12:49:00;13.40;93.80
18797;DHT22;9526;52.612;13.300;2023-04-25T12:51:39;13.60;96.70
18797;DHT22;9526;52.612;13.300;2023-04-25T12:54:05;13.60;94.80
18797;DHT22;9526;52.612;13.300;2023-04-25T12:56:30;13.70;95.10
18797;DHT22;9526;52.612;13.300;2023-04-25T12:58:54;14.10;98.00
18797;DHT22;9526;52.612;13.300;2023-04-25T13:01:18;14.60;95.80
18797;DHT22;9526;52.612;13.300;2023-04-25T13:03:42;14.80;93.10
18797;DHT22;9526;52.612;13.300;2023-04-25T13:06:06;14.70;92.60
18797;DHT22;9526;52.612;13.300;2023-04-25T13:08:30;14.40;90.00
18797;DHT22;9526;52.612;13.300;2023-04-25T13:10:53;14.30;92.70
18797;DHT22;9526;52.612;13.300;2023-04-25T13:13:18;14.00;92.20
18797;DHT22;9526;52.612;13.300;2023-04-25T13:15:42;13.80;92.00
18797;DHT22;9526;52.612;13.300;2023-04-25T13:18:06;13.60;92.50
18797;DHT22;9526;52.612;13.300;2023-04-25T13:20:30;13.60;94.50
18797;DHT22;9526;52.612;13.300;2023-04-25T13:22:54;13.50;93.20
18797;DHT22;9526;52.612;13.300;2023-04-25T13:25:18;13.20;93.10
18797;DHT22;9526;52.612;13.300;2023-04-25T13:27:42;13.00;94.00
18797;DHT22;9526;52.612;13.300;2023-04-25T13:30:09;13.00;94.00
18797;DHT22;9526;52.612;13.300;2023-04-25T13:32:34;12.80;93.90
18797;DHT22;9526;52.612;13.300;2023-04-25T13:34:58;12.90;95.20
18797;DHT22;9526;52.612;13.300;2023-04-25T13:37:26;12.70;95.80
18797;DHT22;9526;52.612;13.300;2023-04-25T13:39:50;12.80;96.30
18797;DHT22;9526;52.612;13.300;2023-04-25T13:42:14;12.90;96.20
18797;DHT22;9526;52.612;13.300;2023-04-25T13:44:37;12.70;95.60
18797;DHT22;9526;52.612;13.300;2023-04-25T13:47:02;12.70;94.40
18797;DHT22;9526;52.612;13.300;2023-04-25T13:49:27;12.70;96.20
18797;DHT22;9526;52.612;13.300;2023-04-25T13:51:50;12.90;96.40
18797;DHT22;9526;52.612;13.300;2023-04-25T13:54:14;13.10;96.30
18797;DHT22;9526;52.612;13.300;2023-04-25T13:56:37;13.20;96.60
18797;DHT22;9526;52.612;13.300;2023-04-25T13:59:04;13.10;95.50
18797;DHT22;9526;52.612;13.300;2023-04-25T14:01:27;13.30;96.30
18797;DHT22;9526;52.612;13.300;2023-04-25T14:03:54;13.30;95.60
18797;DHT22;9526;52.612;13.300;2023-04-25T14:06:18;13.30;96.30
18797;DHT22;9526;52.612;13.300;2023-04-25T14:08:44;13.40;96.20
18797;DHT22;9526;52.612;13.300;2023-04-25T14:11:08;13.20;96.20
18797;DHT22;9526;52.612;13.300;2023-04-25T14:13:32;13.20;95.10
18797;DHT22;9526;52.612;13.300;2023-04-25T14:15:56;13.10;95.60
18797;DHT22;9526;52.612;13.300;2023-04-25T14:18:20;13.00;95.90
18797;DHT22;9526;52.612;13.300;2023-04-25T14:20:45;13.00;96.00
18797;DHT22;9526;52.612;13.300;2023-04-25T14:23:09;13.20;96.60
18797;DHT22;9526;52.612;13.300;2023-04-25T14:25:32;13.30;95.50
18797;DHT22;9526;52.612;13.300;2023-04-25T14:27:57;13.10;97.10
18797;DHT22;9526;52.612;13.300;2023-04-25T14:30:21;13.10;97.20
18797;DHT22;9526;52.612;13.300;2023-04-25T14:32:45;13.10;97.30
18797;DHT22;9526;52.612;13.300;2023-04-25T14:35:09;13.10;96.70
18797;DHT22;9526;52.612;13.300;2023-04-25T14:37:34;12.90;95.50
18797;DHT22;9526;52.612;13.300;2023-04-25T14:39:57;12.90;97.50
18797;DHT22;9526;52.612;13.300;2023-04-25T14:42:21;12.90;98.20
18797;DHT22;9526;52.612;13.300;2023-04-25T14:44:45;12.60;97.60
18797;DHT22;9526;52.612;13.300;2023-04-25T14:47:08;12.50;97.50
18797;DHT22;9526;52.612;13.300;2023-04-25T14:49:32;12.40;96.60
18797;DHT22;9526;52.612;13.300;2023-04-25T14:51:56;12.30;98.60
18797;DHT22;9526;52.612;13.300;2023-04-25T14:54:21;12.30;98.70
18797;DHT22;9526;52.612;13.300;2023-04-25T14:56:44;12.30;98.60
18797;DHT22;9526;52.612;13.300;2023-04-25T14:59:08;11.90;97.40
18797;DHT22;9526;52.612;13.300;2023-04-25T15:01:33;11.90;98.30
18797;DHT22;9526;52.612;13.300;2023-04-25T15:03:57;11.80;97.20
18797;DHT22;9526;52.612;13.300;2023-04-25T15:06:21;11.60;97.20
18797;DHT22;9526;52.612;13.300;2023-04-25T15:08:48;11.60;98.90
18797;DHT22;9526;52.612;13.300;2023-04-25T15:11:13;11.70;98.00
18797;DHT22;9526;52.612;13.300;2023-04-25T15:13:37;11.60;96.30
18797;DHT22;9526;52.612;13.300;2023-04-25T15:16:01;11.70;97.10
18797;DHT22;9526;52.612;13.300;2023-04-25T15:18:24;11.80;96.20
18797;DHT22;9526;52.612;13.300;2023-04-25T15:20:48;12.00;97.40
18797;DHT22;9526;52.612;13.300;2023-04-25T15:23:12;11.90;95.80
18797;DHT22;9526;52.612;13.300;2023-04-25T15:25:35;11.90;95.60
18797;DHT22;9526;52.612;13.300;2023-04-25T15:28:00;12.00;97.90
18797;DHT22;9526;52.612;13.300;2023-04-25T15:30:24;12.10;96.20
18797;DHT22;9526;52.612;13.300;2023-04-25T15:32:48;12.00;97.10
18797;DHT22;9526;52.612;13.300;2023-04-25T15:35:12;12.00;96.00
18797;DHT22;9526;52.612;13.300;2023-04-25T15:37:37;12.00;97.40